Time;durP1;ratioP1;P1;durP2;ratioP2;P2;SDS_P1;SDS_P2;PMS_P1;PMS_P2;Temp;Humidity;BMP_temperature;BMP_pressure;BME280_temperature;BME280_humidity;BME280_pressure;Samples;Min_cycle;Max_cycle;Signal;HPM_P1;HPM_P2
2022/07/13 00:00:34;;;;;;;;;;;12.70;99.90;;;;;;5072902;28;20289;-75
2022/07/13 00:03:00;;;;;;;;;;;12.60;99.90;;;;;;5072413;28;19912;-76
2022/07/13 00:05:25;;;;;;;;;;;12.60;99.90;;;;;;5075069;28;19915;-77
2022/07/13 00:07:51;;;;;;;;;;;12.60;99.90;;;;;;5074301;28;19989;-75
2022/07/13 00:10:16;;;;;;;;;;;12.60;99.90;;;;;;5073073;28;20415;-75
2022/07/13 00:12:42;;;;;;;;;;;12.60;99.90;;;;;;5072312;28;19954;-79
2022/07/13 00:15:08;;;;;;;;;;;12.40;99.90;;;;;;5072183;28;20003;-75
2022/07/13 00:17:34;;;;;;;;;;;12.30;99.90;;;;;;5072559;28;20220;-75
2022/07/13 00:19:59;;;;;;;;;;;12.30;99.90;;;;;;5072341;28;20289;-75
2022/07/13 00:22:25;;;;;;;;;;;12.30;99.90;;;;;;5072007;28;19968;-76
2022/07/13 00:24:51;;;;;;;;;;;12.40;99.90;;;;;;5070521;28;19928;-76
2022/07/13 00:27:16;;;;;;;;;;;12.50;99.90;;;;;;5072283;28;20399;-79
2022/07/13 00:29:42;;;;;;;;;;;12.40;99.90;;;;;;5070981;28;19965;-76
2022/07/13 00:32:07;;;;;;;;;;;12.30;99.90;;;;;;5072274;28;19909;-75
2022/07/13 00:34:33;;;;;;;;;;;12.20;99.90;;;;;;5069034;28;19909;-77
2022/07/13 00:36:58;;;;;;;;;;;12.10;99.90;;;;;;5071776;28;19965;-79
2022/07/13 00:39:24;;;;;;;;;;;12.20;99.90;;;;;;5072054;28;20370;-75
2022/07/13 00:41:49;;;;;;;;;;;12.20;99.90;;;;;;5071832;28;19917;-75
2022/07/13 00:44:16;;;;;;;;;;;12.20;99.90;;;;;;5070280;28;19909;-76
2022/07/13 00:46:44;;;;;;;;;;;12.10;99.90;;;;;;5071946;28;19909;-77
2022/07/13 00:49:11;;;;;;;;;;;12.10;99.90;;;;;;5070715;28;19909;-76
2022/07/13 00:51:36;;;;;;;;;;;12.10;99.90;;;;;;5071371;28;20074;-76
2022/07/13 00:54:03;;;;;;;;;;;12.00;99.90;;;;;;5071777;28;20049;-76
2022/07/13 00:56:29;;;;;;;;;;;12.00;99.90;;;;;;5071926;28;19909;-76
2022/07/13 00:58:56;;;;;;;;;;;11.90;99.90;;;;;;5071730;28;19915;-81
2022/07/13 01:01:21;;;;;;;;;;;11.90;99.90;;;;;;5071257;28;19921;-80
2022/07/13 01:03:47;;;;;;;;;;;11.90;99.90;;;;;;5071341;28;19916;-76
2022/07/13 01:06:12;;;;;;;;;;;11.90;99.90;;;;;;5066127;28;19991;-76
2022/07/13 01:08:38;;;;;;;;;;;11.90;99.90;;;;;;5071431;28;20344;-76
2022/07/13 01:11:04;;;;;;;;;;;11.90;99.90;;;;;;5071671;28;19915;-79
2022/07/13 01:13:29;;;;;;;;;;;11.70;99.90;;;;;;5070635;28;19916;-83
2022/07/13 01:15:55;;;;;;;;;;;11.70;99.90;;;;;;5071351;28;19909;-76
2022/07/13 01:18:21;;;;;;;;;;;11.70;99.90;;;;;;5069455;28;20229;-76
2022/07/13 01:20:47;;;;;;;;;;;11.70;99.90;;;;;;5071355;28;19947;-76
2022/07/13 01:23:14;;;;;;;;;;;11.70;99.90;;;;;;5071012;28;20011;-76
2022/07/13 01:25:40;;;;;;;;;;;11.80;99.90;;;;;;5070668;28;20262;-78
2022/07/13 01:28:06;;;;;;;;;;;11.90;99.90;;;;;;5071311;28;19908;-82
2022/07/13 01:30:31;;;;;;;;;;;11.80;99.90;;;;;;5071413;28;19909;-76
2022/07/13 01:32:57;;;;;;;;;;;11.70;99.90;;;;;;5070190;28;19915;-76
2022/07/13 01:35:23;;;;;;;;;;;11.70;99.90;;;;;;5072897;28;20000;-78
2022/07/13 01:37:49;;;;;;;;;;;11.70;99.90;;;;;;5076996;28;20420;-76
2022/07/13 01:40:15;;;;;;;;;;;11.70;99.90;;;;;;5071405;28;19974;-76
2022/07/13 01:42:45;;;;;;;;;;;11.70;99.90;;;;;;5070861;28;20387;-76
2022/07/13 01:45:11;;;;;;;;;;;11.70;99.90;;;;;;5070922;28;19913;-77
2022/07/13 01:47:39;;;;;;;;;;;11.80;99.90;;;;;;5071203;28;19908;-76
2022/07/13 01:50:05;;;;;;;;;;;11.80;99.90;;;;;;5070898;28;19916;-76
2022/07/13 01:52:33;;;;;;;;;;;11.70;99.90;;;;;;5071206;28;20003;-76
2022/07/13 01:54:58;;;;;;;;;;;11.70;99.90;;;;;;5067686;28;19908;-81
2022/07/13 01:57:24;;;;;;;;;;;11.70;99.90;;;;;;5053160;28;19914;-76
2022/07/13 01:59:50;;;;;;;;;;;11.70;99.90;;;;;;5071190;28;20285;-76
2022/07/13 02:02:16;;;;;;;;;;;11.60;99.90;;;;;;5070671;28;20282;-76
2022/07/13 02:04:42;;;;;;;;;;;11.60;99.90;;;;;;5070213;28;19912;-86
2022/07/13 02:07:07;;;;;;;;;;;11.70;99.90;;;;;;5069338;28;19915;-76
2022/07/13 02:09:33;;;;;;;;;;;11.80;99.90;;;;;;5071017;28;19951;-77
2022/07/13 02:11:59;;;;;;;;;;;11.80;99.90;;;;;;5070471;28;19909;-76
2022/07/13 02:14:24;;;;;;;;;;;11.80;99.90;;;;;;5069276;28;19966;-76
2022/07/13 02:16:50;;;;;;;;;;;11.70;99.90;;;;;;5070972;28;19916;-76
2022/07/13 02:19:15;;;;;;;;;;;11.70;99.90;;;;;;5069604;28;19957;-77
2022/07/13 02:21:41;;;;;;;;;;;11.80;99.90;;;;;;5070300;28;20369;-76
2022/07/13 02:24:06;;;;;;;;;;;11.80;99.90;;;;;;5070516;28;19916;-76
2022/07/13 02:26:32;;;;;;;;;;;11.80;99.90;;;;;;5070995;28;19920;-76
2022/07/13 02:28:57;;;;;;;;;;;11.80;99.90;;;;;;5071816;28;20316;-79
2022/07/13 02:31:23;;;;;;;;;;;11.70;99.90;;;;;;5067707;28;19916;-75
2022/07/13 02:33:48;;;;;;;;;;;11.70;99.90;;;;;;5073882;28;19991;-75
2022/07/13 02:36:14;;;;;;;;;;;11.60;99.90;;;;;;5074179;28;19954;-76
2022/07/13 02:38:39;;;;;;;;;;;11.60;99.90;;;;;;5074268;28;20350;-82
2022/07/13 02:41:05;;;;;;;;;;;11.50;99.90;;;;;;5074389;28;19916;-75
2022/07/13 02:43:30;;;;;;;;;;;11.60;99.90;;;;;;5073651;28;19944;-76
2022/07/13 02:45:56;;;;;;;;;;;11.60;99.90;;;;;;5074489;28;19909;-79
2022/07/13 02:48:21;;;;;;;;;;;11.60;99.90;;;;;;5073059;28;19915;-76
2022/07/13 02:50:47;;;;;;;;;;;11.50;99.90;;;;;;5074285;28;19955;-76
2022/07/13 02:53:12;;;;;;;;;;;11.40;99.90;;;;;;5073467;28;19908;-76
2022/07/13 02:55:38;;;;;;;;;;;11.30;99.90;;;;;;5074548;28;19961;-78
2022/07/13 02:58:03;;;;;;;;;;;11.30;99.90;;;;;;5074565;28;19909;-75
2022/07/13 03:00:29;;;;;;;;;;;11.30;99.90;;;;;;5074682;28;19916;-75
2022/07/13 03:02:54;;;;;;;;;;;11.30;99.90;;;;;;5074290;28;20007;-75
2022/07/13 03:05:20;;;;;;;;;;;11.30;99.90;;;;;;5073449;28;19923;-75
2022/07/13 03:07:46;;;;;;;;;;;11.30;99.90;;;;;;5074550;28;19912;-75
2022/07/13 03:10:13;;;;;;;;;;;11.30;99.90;;;;;;5074949;28;19999;-75
2022/07/13 03:12:38;;;;;;;;;;;11.20;99.90;;;;;;5074694;28;19908;-78
2022/07/13 03:15:04;;;;;;;;;;;11.20;99.90;;;;;;5074384;28;19909;-75
2022/07/13 03:17:30;;;;;;;;;;;11.20;99.90;;;;;;5074845;28;19923;-75
2022/07/13 03:19:55;;;;;;;;;;;11.10;99.90;;;;;;5079165;28;20361;-75
2022/07/13 03:22:21;;;;;;;;;;;11.10;99.90;;;;;;5072859;28;19999;-76
2022/07/13 03:24:46;;;;;;;;;;;10.90;99.90;;;;;;5073361;28;20073;-76
2022/07/13 03:27:12;;;;;;;;;;;11.00;99.90;;;;;;5073913;28;19913;-75
2022/07/13 03:29:37;;;;;;;;;;;11.00;99.90;;;;;;5073974;28;19908;-76
2022/07/13 03:32:03;;;;;;;;;;;11.00;99.90;;;;;;5073836;28;19962;-79
2022/07/13 03:34:28;;;;;;;;;;;10.90;99.90;;;;;;5073109;28;20278;-76
2022/07/13 03:36:54;;;;;;;;;;;10.90;99.90;;;;;;5073054;28;19908;-76
2022/07/13 03:39:19;;;;;;;;;;;10.90;99.90;;;;;;5073366;28;19909;-80
2022/07/13 03:41:45;;;;;;;;;;;10.90;99.90;;;;;;5070691;28;19917;-79
2022/07/13 03:44:12;;;;;;;;;;;10.80;99.90;;;;;;5072755;28;19955;-76
2022/07/13 03:46:38;;;;;;;;;;;10.70;99.90;;;;;;5071987;28;19908;-77
2022/07/13 03:49:03;;;;;;;;;;;10.70;99.90;;;;;;5073762;28;19923;-76
2022/07/13 03:51:29;;;;;;;;;;;10.70;99.90;;;;;;5072672;28;19914;-79
2022/07/13 03:53:54;;;;;;;;;;;10.70;99.90;;;;;;5072610;28;20277;-75
2022/07/13 03:56:20;;;;;;;;;;;10.70;99.90;;;;;;5073205;28;19909;-76
2022/07/13 03:58:45;;;;;;;;;;;10.70;99.90;;;;;;5073148;28;20288;-79
2022/07/13 04:01:11;;;;;;;;;;;10.70;99.90;;;;;;5072951;28;20389;-76
2022/07/13 04:03:36;;;;;;;;;;;10.70;99.90;;;;;;5071615;28;19912;-76
2022/07/13 04:06:02;;;;;;;;;;;10.70;99.90;;;;;;5071493;28;20373;-76
2022/07/13 04:08:27;;;;;;;;;;;10.70;99.90;;;;;;5072551;28;20270;-79
2022/07/13 04:10:53;;;;;;;;;;;10.80;99.90;;;;;;5072814;28;19909;-76
2022/07/13 04:13:18;;;;;;;;;;;11.00;99.90;;;;;;5071925;28;19915;-76
2022/07/13 04:15:44;;;;;;;;;;;11.10;99.90;;;;;;5071291;28;20423;-82
2022/07/13 04:18:09;;;;;;;;;;;11.20;99.90;;;;;;5072360;28;19913;-76
2022/07/13 04:20:34;;;;;;;;;;;11.40;99.90;;;;;;5072358;28;20388;-76
2022/07/13 04:23:00;;;;;;;;;;;11.50;99.90;;;;;;5070732;28;19954;-78
2022/07/13 04:25:26;;;;;;;;;;;11.70;99.90;;;;;;5072010;28;19912;-76
2022/07/13 04:27:51;;;;;;;;;;;11.80;99.90;;;;;;5072470;28;20353;-76
2022/07/13 04:30:17;;;;;;;;;;;12.00;99.90;;;;;;5072474;28;19908;-76
2022/07/13 04:32:42;;;;;;;;;;;12.10;99.90;;;;;;5070543;28;19912;-79
2022/07/13 04:35:08;;;;;;;;;;;12.20;99.90;;;;;;5067821;28;20373;-76
2022/07/13 04:37:34;;;;;;;;;;;12.30;99.90;;;;;;5071667;28;19919;-76
2022/07/13 04:39:59;;;;;;;;;;;12.40;99.90;;;;;;5072245;28;19915;-76
2022/07/13 04:42:25;;;;;;;;;;;12.50;99.90;;;;;;5071933;28;19912;-77
2022/07/13 04:44:50;;;;;;;;;;;12.60;99.90;;;;;;5071685;28;19913;-79
2022/07/13 04:47:16;;;;;;;;;;;12.80;99.90;;;;;;5071836;28;19915;-76
2022/07/13 04:49:41;;;;;;;;;;;12.90;99.90;;;;;;5070717;28;19956;-76
2022/07/13 04:52:07;;;;;;;;;;;13.10;99.90;;;;;;5069864;28;19936;-77
2022/07/13 04:54:33;;;;;;;;;;;13.20;99.90;;;;;;5069954;28;19916;-83
2022/07/13 04:56:58;;;;;;;;;;;13.10;99.90;;;;;;5071830;28;19962;-76
2022/07/13 04:59:24;;;;;;;;;;;13.10;99.90;;;;;;5070627;28;20269;-76
2022/07/13 05:01:49;;;;;;;;;;;13.20;99.90;;;;;;5071269;28;19920;-78
2022/07/13 05:04:14;;;;;;;;;;;13.20;99.90;;;;;;5071421;28;20173;-77
2022/07/13 05:06:40;;;;;;;;;;;13.30;99.90;;;;;;5067263;28;20009;-76
2022/07/13 05:09:06;;;;;;;;;;;13.40;99.90;;;;;;5071458;28;19909;-76
2022/07/13 05:11:32;;;;;;;;;;;13.40;99.90;;;;;;5070140;28;19908;-77
2022/07/13 05:13:57;;;;;;;;;;;13.50;99.90;;;;;;5069670;28;19991;-77
2022/07/13 05:16:23;;;;;;;;;;;13.50;99.90;;;;;;5071405;28;20277;-81
2022/07/13 05:18:48;;;;;;;;;;;13.50;99.90;;;;;;5060343;28;19908;-76
2022/07/13 05:21:14;;;;;;;;;;;13.60;99.90;;;;;;5070872;28;19969;-78
2022/07/13 05:23:40;;;;;;;;;;;13.70;99.90;;;;;;5071086;28;19920;-77
2022/07/13 05:26:05;;;;;;;;;;;13.70;99.90;;;;;;5070119;28;20434;-78
2022/07/13 05:28:31;;;;;;;;;;;13.70;99.90;;;;;;5071448;28;20385;-76
2022/07/13 05:30:57;;;;;;;;;;;13.70;99.90;;;;;;5071640;28;19961;-76
2022/07/13 05:33:23;;;;;;;;;;;13.80;99.90;;;;;;5071018;28;19995;-76
2022/07/13 05:35:48;;;;;;;;;;;14.00;99.90;;;;;;5072607;28;19916;-75
2022/07/13 05:38:15;;;;;;;;;;;14.10;99.90;;;;;;5080973;28;19909;-75
2022/07/13 05:40:40;;;;;;;;;;;14.30;99.90;;;;;;5079034;28;20328;-76
2022/07/13 05:43:06;;;;;;;;;;;14.70;99.90;;;;;;5072551;28;19961;-80
2022/07/13 05:45:31;;;;;;;;;;;14.90;99.90;;;;;;5072207;28;19909;-77
2022/07/13 05:47:57;;;;;;;;;;;15.10;99.90;;;;;;5072343;28;19954;-75
2022/07/13 05:50:23;;;;;;;;;;;15.40;99.90;;;;;;5070334;28;20014;-75
2022/07/13 05:52:48;;;;;;;;;;;16.60;99.90;;;;;;5065062;28;19915;-78
2022/07/13 05:55:14;;;;;;;;;;;17.10;99.90;;;;;;5071219;28;19926;-75
2022/07/13 05:57:40;;;;;;;;;;;16.70;99.90;;;;;;5071944;28;20431;-75
2022/07/13 06:00:10;;;;;;;;;;;17.30;99.90;;;;;;5071840;28;19915;-76
2022/07/13 06:02:35;;;;;;;;;;;17.90;99.90;;;;;;5072017;28;19955;-76
2022/07/13 06:05:01;;;;;;;;;;;17.90;99.90;;;;;;5073122;28;19919;-76
2022/07/13 06:07:26;;;;;;;;;;;19.30;99.90;;;;;;5081705;28;19915;-83
2022/07/13 06:09:52;;;;;;;;;;;18.50;99.90;;;;;;5074420;28;20022;-76
2022/07/13 06:12:18;;;;;;;;;;;18.40;99.90;;;;;;5075606;28;19909;-76
2022/07/13 06:14:43;;;;;;;;;;;18.50;99.90;;;;;;5076451;28;20369;-76
2022/07/13 06:17:09;;;;;;;;;;;18.20;99.90;;;;;;5076316;28;19916;-80
2022/07/13 06:19:34;;;;;;;;;;;18.40;99.90;;;;;;5075403;28;19931;-76
2022/07/13 06:22:00;;;;;;;;;;;18.10;99.90;;;;;;5075275;28;20013;-76
2022/07/13 06:24:25;;;;;;;;;;;18.10;99.90;;;;;;5075291;28;20050;-76
2022/07/13 06:26:51;;;;;;;;;;;18.30;99.90;;;;;;5076742;28;19912;-83
2022/07/13 06:29:18;;;;;;;;;;;19.00;99.90;;;;;;5075951;28;19913;-76
2022/07/13 06:31:43;;;;;;;;;;;20.00;99.90;;;;;;5078769;28;19932;-79
2022/07/13 06:34:09;;;;;;;;;;;20.50;99.90;;;;;;5079344;28;20373;-76
2022/07/13 06:36:34;;;;;;;;;;;20.60;99.90;;;;;;5077927;28;19913;-77
2022/07/13 06:39:00;;;;;;;;;;;21.00;99.90;;;;;;5079884;28;19909;-76
2022/07/13 06:41:26;;;;;;;;;;;21.10;99.90;;;;;;5080619;28;20281;-77
2022/07/13 06:43:52;;;;;;;;;;;21.20;99.90;;;;;;5074465;28;19909;-76
2022/07/13 06:46:17;;;;;;;;;;;21.00;99.90;;;;;;5074301;28;20335;-79
2022/07/13 06:48:43;;;;;;;;;;;20.90;99.90;;;;;;5075978;28;20413;-77
2022/07/13 06:51:08;;;;;;;;;;;21.00;99.90;;;;;;5075135;28;20288;-76
2022/07/13 06:53:34;;;;;;;;;;;21.30;99.90;;;;;;5073914;28;19908;-76
2022/07/13 06:56:00;;;;;;;;;;;21.30;99.90;;;;;;5075023;28;19991;-80
2022/07/13 06:58:25;;;;;;;;;;;21.40;99.90;;;;;;5074250;28;20013;-76
2022/07/13 07:00:50;;;;;;;;;;;21.70;99.90;;;;;;5074920;28;19962;-76
2022/07/13 07:03:18;;;;;;;;;;;22.10;99.90;;;;;;5073116;28;19948;-77
2022/07/13 07:05:43;;;;;;;;;;;22.30;99.90;;;;;;5075137;28;19916;-77
2022/07/13 07:08:09;;;;;;;;;;;23.60;98.20;;;;;;5077258;28;19913;-77
2022/07/13 07:10:34;;;;;;;;;;;23.90;96.80;;;;;;5074972;28;19954;-77
2022/07/13 07:13:00;;;;;;;;;;;23.70;96.50;;;;;;5075802;28;20316;-83
2022/07/13 07:15:25;;;;;;;;;;;23.60;96.10;;;;;;5072503;28;19909;-77
2022/07/13 07:17:51;;;;;;;;;;;24.40;97.60;;;;;;5075842;28;20003;-77
2022/07/13 07:20:16;;;;;;;;;;;25.50;88.90;;;;;;5074902;28;19915;-78
2022/07/13 07:22:43;;;;;;;;;;;25.00;86.80;;;;;;5074159;28;19913;-81
2022/07/13 07:25:09;;;;;;;;;;;25.10;87.00;;;;;;5074439;28;19994;-82
2022/07/13 07:27:34;;;;;;;;;;;24.50;86.70;;;;;;5058392;28;19944;-81
2022/07/13 07:30:00;;;;;;;;;;;24.20;89.30;;;;;;5073083;28;19909;-76
2022/07/13 07:32:26;;;;;;;;;;;24.40;92.00;;;;;;5072790;28;19909;-76
2022/07/13 07:34:52;;;;;;;;;;;24.20;90.30;;;;;;5081634;28;19912;-76
2022/07/13 07:39:54;;;;;;;;;;;24.70;85.40;;;;;;6028903;22;19921;-89
2022/07/13 07:44:56;;;;;;;;;;;26.50;91.20;;;;;;5889855;22;19929;-88
2022/07/13 07:55:08;;;;;;;;;;;26.00;79.30;;;;;;6138854;22;19916;-77
2022/07/13 07:57:43;;;;;;;;;;;25.40;80.50;;;;;;5024526;28;19940;-77
2022/07/13 08:00:09;;;;;;;;;;;25.60;88.70;;;;;;5032334;28;19951;-77
2022/07/13 08:02:35;;;;;;;;;;;26.10;87.10;;;;;;5144530;22;19959;-77
2022/07/13 08:07:42;;;;;;;;;;;26.10;81.00;;;;;;5106987;22;19909;-77
2022/07/13 08:10:08;;;;;;;;;;;26.50;80.00;;;;;;5544048;22;20247;-76
2022/07/13 08:12:34;;;;;;;;;;;26.60;74.00;;;;;;5069582;28;19908;-77
2022/07/13 08:15:00;;;;;;;;;;;26.70;80.30;;;;;;5067109;28;19919;-79
2022/07/13 08:17:25;;;;;;;;;;;27.10;78.40;;;;;;5066851;28;19932;-78
2022/07/13 08:19:51;;;;;;;;;;;27.60;80.00;;;;;;5050199;28;19920;-77
2022/07/13 08:22:16;;;;;;;;;;;27.70;76.80;;;;;;5048392;28;20297;-78
2022/07/13 08:24:42;;;;;;;;;;;27.40;77.50;;;;;;5044869;28;19913;-80
2022/07/13 08:27:07;;;;;;;;;;;27.70;81.10;;;;;;5046894;28;19970;-77
2022/07/13 08:29:34;;;;;;;;;;;27.70;74.70;;;;;;5041448;28;19909;-80
2022/07/13 08:32:00;;;;;;;;;;;27.60;72.70;;;;;;5035618;28;19910;-77
2022/07/13 08:39:54;;;;;;;;;;;27.90;77.00;;;;;;5036660;28;20046;-80
2022/07/13 08:42:20;;;;;;;;;;;27.70;71.00;;;;;;5053908;28;19955;-78
2022/07/13 08:44:45;;;;;;;;;;;27.50;77.30;;;;;;5048434;28;19909;-77
2022/07/13 08:47:11;;;;;;;;;;;27.80;78.30;;;;;;5041479;28;20282;-77
2022/07/13 08:49:36;;;;;;;;;;;28.00;73.60;;;;;;5041191;28;19913;-80
2022/07/13 08:52:02;;;;;;;;;;;28.60;76.60;;;;;;5033746;28;20413;-77
2022/07/13 08:54:29;;;;;;;;;;;29.10;65.40;;;;;;5033349;28;19996;-77
2022/07/13 08:56:55;;;;;;;;;;;28.60;78.10;;;;;;5033945;28;19909;-77
2022/07/13 08:59:21;;;;;;;;;;;29.40;71.00;;;;;;5032763;28;19919;-77
2022/07/13 09:01:49;;;;;;;;;;;29.80;66.20;;;;;;5051399;28;20003;-82
2022/07/13 09:04:14;;;;;;;;;;;30.10;70.70;;;;;;5047422;28;19909;-77
2022/07/13 09:06:47;;;;;;;;;;;30.00;68.30;;;;;;5042940;28;19958;-77
2022/07/13 09:09:26;;;;;;;;;;;29.60;64.40;;;;;;5040251;28;20404;-80
2022/07/13 09:11:52;;;;;;;;;;;28.70;68.40;;;;;;5028506;28;19928;-77
2022/07/13 09:14:24;;;;;;;;;;;28.50;67.20;;;;;;5032465;28;19910;-78
2022/07/13 09:16:52;;;;;;;;;;;28.70;71.60;;;;;;5033962;28;20259;-77
2022/07/13 09:19:17;;;;;;;;;;;28.50;69.40;;;;;;5043320;28;19910;-79
2022/07/13 09:21:43;;;;;;;;;;;29.00;69.10;;;;;;5031669;28;19913;-81
2022/07/13 09:24:08;;;;;;;;;;;30.30;66.40;;;;;;5039408;28;20016;-76
2022/07/13 09:26:46;;;;;;;;;;;30.70;65.30;;;;;;5039911;28;19931;-76
2022/07/13 09:29:12;;;;;;;;;;;30.30;64.20;;;;;;5058046;28;19920;-78
2022/07/13 09:31:50;;;;;;;;;;;30.20;64.60;;;;;;5053311;28;19908;-77
2022/07/13 09:34:16;;;;;;;;;;;31.50;69.10;;;;;;5037860;28;19916;-77
2022/07/13 09:36:42;;;;;;;;;;;32.10;67.10;;;;;;5034230;28;19913;-77
2022/07/13 09:39:09;;;;;;;;;;;32.70;67.20;;;;;;5046487;28;19909;-81
2022/07/13 09:41:35;;;;;;;;;;;32.80;66.80;;;;;;5052722;28;19913;-77
2022/07/13 09:46:53;;;;;;;;;;;32.20;56.40;;;;;;5047068;28;19962;-82
2022/07/13 09:49:35;;;;;;;;;;;32.30;59.80;;;;;;5051267;28;19963;-77
2022/07/13 09:52:03;;;;;;;;;;;33.50;59.80;;;;;;5025946;28;19913;-76
2022/07/13 09:54:29;;;;;;;;;;;32.40;54.20;;;;;;5043463;28;19909;-77
2022/07/13 09:56:59;;;;;;;;;;;32.00;63.00;;;;;;5037148;28;20000;-77
2022/07/13 09:59:25;;;;;;;;;;;32.30;50.80;;;;;;5031574;28;19909;-78
2022/07/13 10:01:51;;;;;;;;;;;32.00;59.60;;;;;;5044478;28;19923;-77
2022/07/13 10:04:17;;;;;;;;;;;32.00;56.80;;;;;;5036826;28;20374;-77
2022/07/13 10:06:42;;;;;;;;;;;33.10;53.90;;;;;;5031048;28;20367;-78
2022/07/13 10:09:08;;;;;;;;;;;32.20;59.90;;;;;;5033600;28;19909;-77
2022/07/13 10:11:34;;;;;;;;;;;32.80;55.60;;;;;;5043771;28;20378;-77
2022/07/13 10:13:59;;;;;;;;;;;32.60;54.10;;;;;;5049898;28;20259;-77
2022/07/13 10:16:28;;;;;;;;;;;33.10;54.20;;;;;;5050163;28;20362;-77
2022/07/13 10:18:54;;;;;;;;;;;33.30;47.70;;;;;;5043729;28;19916;-77
2022/07/13 10:21:40;;;;;;;;;;;32.70;50.90;;;;;;5020346;28;19917;-77
2022/07/13 10:24:15;;;;;;;;;;;32.50;50.20;;;;;;5016368;28;19908;-77
2022/07/13 10:26:41;;;;;;;;;;;33.20;50.60;;;;;;5050187;28;19916;-80
2022/07/13 10:29:09;;;;;;;;;;;32.10;49.30;;;;;;5040972;28;19913;-79
2022/07/13 10:31:36;;;;;;;;;;;31.10;52.70;;;;;;5030593;28;19909;-81
2022/07/13 10:34:02;;;;;;;;;;;30.80;52.10;;;;;;5029202;28;20035;-76
2022/07/13 10:37:06;;;;;;;;;;;30.90;53.90;;;;;;5032560;28;19912;-77
2022/07/13 10:39:33;;;;;;;;;;;32.50;53.40;;;;;;4949991;28;20350;-77
2022/07/13 10:42:00;;;;;;;;;;;34.50;47.60;;;;;;4935007;28;20328;-81
2022/07/13 10:44:29;;;;;;;;;;;32.80;52.70;;;;;;5000247;28;19909;-77
2022/07/13 10:46:55;;;;;;;;;;;33.80;49.70;;;;;;5030995;28;19909;-77
2022/07/13 10:49:44;;;;;;;;;;;33.30;48.10;;;;;;5029769;28;19909;-77
2022/07/13 10:52:19;;;;;;;;;;;34.00;46.30;;;;;;5050758;28;19940;-77
2022/07/13 10:55:07;;;;;;;;;;;34.20;47.60;;;;;;5033178;28;19935;-77
2022/07/13 10:57:33;;;;;;;;;;;33.20;46.70;;;;;;5039714;28;19909;-77
2022/07/13 11:00:00;;;;;;;;;;;33.80;46.40;;;;;;5034289;28;19909;-77
2022/07/13 11:02:45;;;;;;;;;;;33.90;47.00;;;;;;5040445;28;19920;-80
2022/07/13 11:05:11;;;;;;;;;;;33.70;45.30;;;;;;5043577;28;19932;-77
2022/07/13 11:07:41;;;;;;;;;;;33.50;46.50;;;;;;5034135;28;19940;-77
2022/07/13 11:10:14;;;;;;;;;;;33.80;50.00;;;;;;5043861;28;20007;-77
2022/07/13 11:12:53;;;;;;;;;;;34.00;47.40;;;;;;5033615;28;19924;-77
2022/07/13 11:15:19;;;;;;;;;;;33.90;48.70;;;;;;5033711;28;20255;-77
2022/07/13 11:17:52;;;;;;;;;;;34.30;46.90;;;;;;5046207;28;19920;-77
2022/07/13 11:20:17;;;;;;;;;;;34.10;44.00;;;;;;5053406;28;19909;-77
2022/07/13 11:25:46;;;;;;;;;;;33.80;43.30;;;;;;5037765;28;19956;-77
2022/07/13 11:28:27;;;;;;;;;;;33.80;51.40;;;;;;5053051;28;19909;-77
2022/07/13 11:30:54;;;;;;;;;;;33.90;42.70;;;;;;5040949;28;19913;-77
2022/07/13 11:33:20;;;;;;;;;;;33.10;50.40;;;;;;5031624;28;19916;-76
2022/07/13 11:35:49;;;;;;;;;;;33.50;45.40;;;;;;5033697;28;19909;-77
2022/07/13 11:38:15;;;;;;;;;;;33.70;44.50;;;;;;5029571;28;20007;-79
2022/07/13 11:40:41;;;;;;;;;;;33.90;43.40;;;;;;5034120;28;19909;-78
2022/07/13 11:43:08;;;;;;;;;;;33.70;41.20;;;;;;5032722;28;19913;-80
2022/07/13 11:45:33;;;;;;;;;;;33.50;44.30;;;;;;5033725;28;19913;-77
2022/07/13 11:47:59;;;;;;;;;;;33.10;41.90;;;;;;5032651;28;19932;-77
2022/07/13 11:51:00;;;;;;;;;;;32.50;42.70;;;;;;5033637;28;19909;-77
2022/07/13 11:53:29;;;;;;;;;;;34.00;43.40;;;;;;4960676;28;20250;-76
2022/07/13 11:55:56;;;;;;;;;;;33.90;45.10;;;;;;5021926;28;20046;-77
2022/07/13 11:58:27;;;;;;;;;;;34.30;40.50;;;;;;5048877;28;19924;-78
2022/07/13 12:00:53;;;;;;;;;;;34.10;41.10;;;;;;5052258;28;19909;-78
2022/07/13 12:03:29;;;;;;;;;;;34.40;38.50;;;;;;5050894;28;19909;-78
2022/07/13 12:05:58;;;;;;;;;;;33.10;37.80;;;;;;5041289;28;19999;-78
2022/07/13 12:08:24;;;;;;;;;;;33.20;44.30;;;;;;5041915;28;19959;-77
2022/07/13 12:10:49;;;;;;;;;;;33.70;38.50;;;;;;5051043;28;19924;-77
2022/07/13 12:13:16;;;;;;;;;;;33.40;41.20;;;;;;5051332;28;19913;-77
2022/07/13 12:15:43;;;;;;;;;;;33.80;38.70;;;;;;5052526;28;19913;-78
2022/07/13 12:18:10;;;;;;;;;;;34.50;44.00;;;;;;5052258;28;19909;-78
2022/07/13 12:20:37;;;;;;;;;;;34.60;39.50;;;;;;5052406;28;19915;-78
2022/07/13 12:23:05;;;;;;;;;;;34.30;43.30;;;;;;5051389;28;19917;-78
2022/07/13 12:25:32;;;;;;;;;;;34.80;44.70;;;;;;5053082;28;19915;-77
2022/07/13 12:28:00;;;;;;;;;;;34.50;36.80;;;;;;5052105;28;19909;-77
2022/07/13 12:30:27;;;;;;;;;;;34.60;42.30;;;;;;5050926;28;19955;-78
2022/07/13 12:32:56;;;;;;;;;;;35.90;40.60;;;;;;5042828;28;20357;-77
2022/07/13 12:35:24;;;;;;;;;;;36.50;41.80;;;;;;5032307;28;19913;-77
2022/07/13 12:37:51;;;;;;;;;;;36.80;38.50;;;;;;5034532;28;19956;-78
2022/07/13 12:40:35;;;;;;;;;;;36.80;42.70;;;;;;5033114;28;19917;-78
2022/07/13 12:43:00;;;;;;;;;;;35.90;39.50;;;;;;5049783;28;19999;-77
2022/07/13 12:45:30;;;;;;;;;;;36.00;38.80;;;;;;5051411;28;19952;-78
2022/07/13 12:47:55;;;;;;;;;;;35.90;38.10;;;;;;5051798;28;19908;-78
2022/07/13 12:50:30;;;;;;;;;;;36.70;43.50;;;;;;5050426;28;19958;-77
2022/07/13 12:52:59;;;;;;;;;;;36.50;38.90;;;;;;5051225;28;19913;-78
2022/07/13 12:55:24;;;;;;;;;;;35.60;39.20;;;;;;5050862;28;20003;-78
2022/07/13 12:57:50;;;;;;;;;;;35.60;40.00;;;;;;5051310;28;19952;-78
2022/07/13 13:00:21;;;;;;;;;;;35.00;43.40;;;;;;5051343;28;19909;-77
2022/07/13 13:02:46;;;;;;;;;;;34.50;42.10;;;;;;5049765;28;19924;-78
2022/07/13 13:05:12;;;;;;;;;;;33.80;39.70;;;;;;5040277;28;19918;-77
2022/07/13 13:07:38;;;;;;;;;;;32.40;40.10;;;;;;5031651;28;19909;-77
2022/07/13 13:10:05;;;;;;;;;;;32.10;47.40;;;;;;5032294;28;20363;-77
2022/07/13 13:12:30;;;;;;;;;;;32.30;43.40;;;;;;5026093;28;20193;-77
2022/07/13 13:14:56;;;;;;;;;;;32.20;41.90;;;;;;5027665;28;19915;-77
2022/07/13 13:17:22;;;;;;;;;;;32.60;49.40;;;;;;5032216;28;19913;-77
2022/07/13 13:19:47;;;;;;;;;;;32.40;49.00;;;;;;5031098;28;19913;-77
2022/07/13 13:22:13;;;;;;;;;;;31.80;40.30;;;;;;5031316;28;19913;-77
2022/07/13 13:24:39;;;;;;;;;;;31.30;41.70;;;;;;5031547;28;19909;-77
2022/07/13 13:27:05;;;;;;;;;;;31.50;43.60;;;;;;5031885;28;20337;-77
2022/07/13 13:32:15;;;;;;;;;;;32.70;44.90;;;;;;5031466;28;20282;-78
2022/07/13 13:34:41;;;;;;;;;;;32.30;41.30;;;;;;5030119;28;19909;-77
2022/07/13 13:37:06;;;;;;;;;;;32.50;43.00;;;;;;5035588;28;20125;-77
2022/07/13 13:39:32;;;;;;;;;;;32.80;46.50;;;;;;5031934;28;19913;-77
2022/07/13 13:41:57;;;;;;;;;;;32.50;44.30;;;;;;5050219;28;20322;-77
2022/07/13 13:44:23;;;;;;;;;;;32.80;41.40;;;;;;5050406;28;19924;-77
2022/07/13 13:46:48;;;;;;;;;;;32.90;44.60;;;;;;5050808;28;19955;-77
2022/07/13 13:49:14;;;;;;;;;;;32.60;45.20;;;;;;5051156;28;19908;-77
2022/07/13 13:51:39;;;;;;;;;;;32.40;46.40;;;;;;5049071;28;19916;-78
2022/07/13 13:54:05;;;;;;;;;;;37.00;38.10;;;;;;5050077;28;19980;-78
2022/07/13 13:56:31;;;;;;;;;;;38.70;38.20;;;;;;5050837;28;20324;-78
2022/07/13 13:58:56;;;;;;;;;;;39.90;32.20;;;;;;5050773;28;19909;-78
2022/07/13 14:01:23;;;;;;;;;;;39.10;35.20;;;;;;5046529;28;19916;-78
2022/07/13 14:03:49;;;;;;;;;;;41.00;28.90;;;;;;5047945;28;19916;-78
2022/07/13 14:06:14;;;;;;;;;;;40.80;28.90;;;;;;5034838;28;19916;-78
2022/07/13 14:08:43;;;;;;;;;;;41.10;30.70;;;;;;5041530;28;20354;-78
2022/07/13 14:11:12;;;;;;;;;;;41.80;30.90;;;;;;5050826;28;20008;-77
2022/07/13 14:13:38;;;;;;;;;;;37.90;31.00;;;;;;5049803;28;19915;-78
2022/07/13 14:16:04;;;;;;;;;;;37.70;33.10;;;;;;5050650;28;19941;-78
2022/07/13 14:18:31;;;;;;;;;;;38.20;37.80;;;;;;5050618;28;19912;-78
2022/07/13 14:20:57;;;;;;;;;;;36.10;35.00;;;;;;5050584;28;19915;-77
2022/07/13 14:23:22;;;;;;;;;;;33.90;37.90;;;;;;5048984;28;19921;-78
2022/07/13 14:25:48;;;;;;;;;;;32.70;40.50;;;;;;5051430;28;20312;-77
2022/07/13 14:28:14;;;;;;;;;;;31.80;40.40;;;;;;5053088;28;19908;-77
2022/07/13 14:30:40;;;;;;;;;;;31.50;45.10;;;;;;5054306;28;19912;-77
2022/07/13 14:33:06;;;;;;;;;;;31.30;45.60;;;;;;5053530;28;19913;-77
2022/07/13 14:35:31;;;;;;;;;;;31.20;42.50;;;;;;5042665;28;19913;-77
2022/07/13 14:37:57;;;;;;;;;;;31.30;45.90;;;;;;5034830;28;19980;-77
2022/07/13 14:40:22;;;;;;;;;;;31.10;41.50;;;;;;5039015;28;19913;-77
2022/07/13 14:42:48;;;;;;;;;;;31.10;41.20;;;;;;5053530;28;20283;-77